createdAt,value
2022-10-11T00:13:39.146Z,59.89
2022-10-11T00:16:19.227Z,59.80
2022-10-11T00:18:52.372Z,59.73
2022-10-11T00:21:18.990Z,59.59
2022-10-11T00:23:59.165Z,59.71
2022-10-11T00:26:32.340Z,59.20
2022-10-11T00:29:07.162Z,59.43
2022-10-11T00:39:00.145Z,59.13
2022-10-11T00:41:40.194Z,59.12
2022-10-11T00:44:19.213Z,59.34
2022-10-11T00:47:06.418Z,59.24
2022-10-11T00:49:44.996Z,59.34
2022-10-11T00:52:34.192Z,59.37
2022-10-11T01:05:49.173Z,59.42
2022-10-11T01:08:23.312Z,59.31
2022-10-11T01:10:57.229Z,59.54
2022-10-11T01:13:47.176Z,59.44
2022-10-11T01:16:38.166Z,59.63
2022-10-11T01:33:29.137Z,59.71
2022-10-11T01:36:20.170Z,59.83
2022-10-11T01:39:01.046Z,59.76
2022-10-11T01:41:49.183Z,59.92
2022-10-11T01:44:25.989Z,59.61
2022-10-11T01:47:07.217Z,59.46
2022-10-11T02:00:23.166Z,59.40
2022-10-11T02:03:20.290Z,59.51
2022-10-11T02:06:10.151Z,59.59
2022-10-11T02:08:53.439Z,59.51
2022-10-11T02:11:37.166Z,59.82
2022-10-11T02:14:15.507Z,59.63
2022-10-11T02:27:14.142Z,59.96
2022-10-11T02:29:57.189Z,60.04
2022-10-11T02:32:33.123Z,59.88
2022-10-11T02:35:10.162Z,59.81
2022-10-11T02:37:53.262Z,60.13
2022-10-11T02:54:14.162Z,60.13
2022-10-11T02:56:47.211Z,60.05
2022-10-11T02:59:13.958Z,60.24
2022-10-11T03:01:54.236Z,60.35
2022-10-11T03:04:27.385Z,60.25
2022-10-11T03:06:54.123Z,60.39
2022-10-11T03:19:32.137Z,60.50
2022-10-11T03:22:12.155Z,60.63
2022-10-11T03:24:47.112Z,60.92
2022-10-11T03:27:20.213Z,60.78
2022-10-11T03:29:53.240Z,60.80
2022-10-11T03:32:19.805Z,60.63
2022-10-11T03:48:44.801Z,60.78
2022-10-11T03:51:18.196Z,60.74
2022-10-11T03:53:51.166Z,60.66
2022-10-11T03:56:24.256Z,60.64
2022-10-11T03:58:50.865Z,60.63
2022-10-11T04:15:23.179Z,60.87
2022-10-11T04:17:56.188Z,60.77
2022-10-11T04:20:22.993Z,60.63
2022-10-11T04:23:03.137Z,60.54
2022-10-11T04:25:38.498Z,60.95
2022-10-11T04:28:12.213Z,60.69
2022-10-11T04:41:23.162Z,60.62
2022-10-11T04:43:56.583Z,60.60
2022-10-11T04:46:30.150Z,60.52
2022-10-11T04:49:03.335Z,60.45
2022-10-11T04:51:40.208Z,60.41
2022-10-11T04:54:13.501Z,60.26
2022-10-11T05:07:03.122Z,59.91
2022-10-11T05:09:43.153Z,59.94
2022-10-11T05:12:16.206Z,59.62
2022-10-11T05:14:42.749Z,59.57
2022-10-11T05:17:23.174Z,59.57
2022-10-11T05:19:56.271Z,59.25
2022-10-11T05:22:31.186Z,59.28
2022-10-11T05:35:40.158Z,58.52
2022-10-11T05:38:09.050Z,58.55
2022-10-11T05:40:49.125Z,58.53
2022-10-11T05:43:22.135Z,58.17
2022-10-11T05:45:49.099Z,58.07
2022-10-11T05:48:29.179Z,57.94
2022-10-11T06:01:40.267Z,57.73
2022-10-11T06:04:13.149Z,57.75
2022-10-11T06:06:39.689Z,57.64
2022-10-11T06:09:20.145Z,57.59
2022-10-11T06:11:53.157Z,57.56
2022-10-11T06:14:19.698Z,57.34
2022-10-11T06:27:17.131Z,57.30
2022-10-11T06:29:57.162Z,57.42
2022-10-11T06:32:35.158Z,57.30
2022-10-11T06:35:08.143Z,57.16
2022-10-11T06:37:41.209Z,57.32
2022-10-11T06:40:16.162Z,57.38
2022-10-11T06:42:51.186Z,57.20
2022-10-11T06:55:39.113Z,57.31
2022-10-11T06:58:21.188Z,57.41
2022-10-11T07:00:54.255Z,57.42
2022-10-11T07:03:20.830Z,57.36
2022-10-11T07:06:07.454Z,57.60
2022-10-11T07:08:41.892Z,57.26
2022-10-11T07:21:32.111Z,57.46
2022-10-11T07:24:13.152Z,57.49
2022-10-11T07:26:46.205Z,57.71
2022-10-11T07:29:12.786Z,57.89
2022-10-11T07:31:53.144Z,57.81
2022-10-11T07:34:26.277Z,57.74
2022-10-11T07:47:15.118Z,57.96
2022-10-11T07:49:55.134Z,58.34
2022-10-11T07:52:28.273Z,58.31
2022-10-11T07:54:54.806Z,58.26
2022-10-11T07:57:35.113Z,58.28
2022-10-11T08:00:10.370Z,58.55
2022-10-11T08:02:49.245Z,58.44
2022-10-11T08:15:59.158Z,58.66
2022-10-11T08:18:34.123Z,58.70
2022-10-11T08:21:13.161Z,58.78
2022-10-11T08:23:46.442Z,58.78
2022-10-11T08:26:20.155Z,58.86
2022-10-11T08:28:53.441Z,59.00
2022-10-11T08:41:51.096Z,58.78
2022-10-11T08:45:10.082Z,58.80
2022-10-11T08:47:45.235Z,58.78
2022-10-11T08:50:26.158Z,58.75
2022-10-11T08:53:07.654Z,58.72
2022-10-11T09:10:10.146Z,57.95
2022-10-11T09:12:58.161Z,57.92
2022-10-11T09:15:52.135Z,57.94
2022-10-11T09:18:52.402Z,58.10
2022-10-11T09:21:47.138Z,58.14
2022-10-11T09:34:59.136Z,57.74
2022-10-11T09:37:43.977Z,57.34
2022-10-11T09:40:44.108Z,57.54
2022-10-11T09:43:17.824Z,57.42
2022-10-11T09:45:51.133Z,57.19
2022-10-11T09:48:32.082Z,57.13
2022-10-11T10:01:32.127Z,55.86
2022-10-11T10:04:17.652Z,55.72
2022-10-11T10:07:11.102Z,55.39
2022-10-11T10:09:51.146Z,55.53
2022-10-11T10:12:29.297Z,55.65
2022-10-11T10:29:08.152Z,52.92
2022-10-11T10:35:13.142Z,53.08
2022-10-11T10:38:01.836Z,52.76
2022-10-11T10:40:54.110Z,52.73
2022-10-11T10:43:34.519Z,53.04
2022-10-11T10:56:42.099Z,51.43
2022-10-11T10:59:51.154Z,51.55
2022-10-11T11:02:40.704Z,51.57
2022-10-11T11:05:34.361Z,51.11
2022-10-11T11:08:16.694Z,51.14
2022-10-11T11:21:31.273Z,50.33
2022-10-11T11:24:27.138Z,50.22
2022-10-11T11:27:17.209Z,49.48
2022-10-11T11:30:07.148Z,49.03
2022-10-11T11:32:56.537Z,48.61
2022-10-11T11:49:28.138Z,47.45
2022-10-11T11:52:04.259Z,47.28
2022-10-11T11:54:55.161Z,47.79
2022-10-11T11:57:48.370Z,47.63
2022-10-11T12:00:33.130Z,47.79
2022-10-11T12:03:16.022Z,47.19
2022-10-11T12:16:19.089Z,46.84
2022-10-11T12:19:08.141Z,46.34
2022-10-11T12:21:43.891Z,46.86
2022-10-11T12:24:28.135Z,46.62
2022-10-11T12:27:40.650Z,45.78
2022-10-11T12:41:32.093Z,46.87
2022-10-11T12:44:28.248Z,47.21
2022-10-11T12:47:31.616Z,46.99
2022-10-11T12:50:24.117Z,46.80
2022-10-11T12:53:17.039Z,46.77
2022-10-11T13:09:48.931Z,45.48
2022-10-11T13:12:25.895Z,44.69
2022-10-11T13:15:14.118Z,43.68
2022-10-11T13:17:47.730Z,43.21
2022-10-11T13:20:27.124Z,43.35
2022-10-11T13:23:00.461Z,42.34
2022-10-11T13:35:50.082Z,39.84
2022-10-11T13:38:35.173Z,40.14
2022-10-11T13:41:09.725Z,41.09
2022-10-11T13:43:44.152Z,41.75
2022-10-11T13:46:22.699Z,42.04
2022-10-11T13:49:07.109Z,42.46
2022-10-11T14:02:28.133Z,44.03
2022-10-11T14:05:01.337Z,44.10
2022-10-11T14:07:42.129Z,43.58
2022-10-11T14:10:20.203Z,43.44
2022-10-11T14:13:13.185Z,43.54
2022-10-11T14:30:23.506Z,41.57
2022-10-11T14:32:50.119Z,40.00
2022-10-11T14:35:30.986Z,39.08
2022-10-11T14:38:11.139Z,39.11
2022-10-11T14:40:44.176Z,37.93
2022-10-11T14:43:10.730Z,36.97
2022-10-11T14:56:08.617Z,34.47
2022-10-11T14:58:49.127Z,33.76
2022-10-11T15:01:22.337Z,33.35
2022-10-11T15:03:48.952Z,33.36
2022-10-11T15:06:36.125Z,33.60
2022-10-11T15:09:09.693Z,34.26
2022-10-11T15:22:05.110Z,38.07
2022-10-11T15:24:49.348Z,38.96
2022-10-11T15:27:24.334Z,39.40
2022-10-11T15:29:57.127Z,39.69
2022-10-11T15:32:30.156Z,39.72
2022-10-11T15:34:56.809Z,40.29
2022-10-11T15:37:39.117Z,40.95
2022-10-11T15:50:49.143Z,42.82
2022-10-11T15:53:27.572Z,42.79
2022-10-11T15:56:11.146Z,43.20
2022-10-11T15:58:44.271Z,43.37
2022-10-11T16:01:22.173Z,43.95
2022-10-11T16:03:55.205Z,43.92
2022-10-11T16:16:45.101Z,44.68
2022-10-11T16:19:26.754Z,44.91
2022-10-11T16:22:00.174Z,45.03
2022-10-11T16:24:33.138Z,45.33
2022-10-11T16:27:06.374Z,45.19
2022-10-11T16:29:33.012Z,45.45
2022-10-11T16:42:30.094Z,45.82
2022-10-11T16:45:11.117Z,45.79
2022-10-11T16:47:44.419Z,45.76
2022-10-11T16:50:19.134Z,45.67
2022-10-11T16:52:52.873Z,45.81
2022-10-11T16:55:26.137Z,45.74
2022-10-11T16:58:01.144Z,45.65
2022-10-11T17:10:49.081Z,46.11
2022-10-11T17:13:31.138Z,46.19
2022-10-11T17:16:05.734Z,46.46
2022-10-11T17:18:39.121Z,46.32
2022-10-11T17:21:15.577Z,46.41
2022-10-11T17:23:49.837Z,46.32
2022-10-11T17:37:01.101Z,46.46
2022-10-11T17:39:34.158Z,46.52
2022-10-11T17:42:00.697Z,46.27
2022-10-11T17:44:42.133Z,46.62
2022-10-11T17:47:15.347Z,46.73
2022-10-11T17:49:41.916Z,46.72
2022-10-11T18:02:39.084Z,46.81
2022-10-11T18:05:19.152Z,46.78
2022-10-11T18:07:52.430Z,46.53
2022-10-11T18:10:26.162Z,46.79
2022-10-11T18:13:03.048Z,46.80
2022-10-11T18:15:48.176Z,46.92
2022-10-11T18:18:26.213Z,47.21
2022-10-11T18:31:17.764Z,47.67
2022-10-11T18:34:01.132Z,47.30
2022-10-11T18:36:34.165Z,47.22
2022-10-11T18:39:12.159Z,47.24
2022-10-11T18:41:45.170Z,47.58
2022-10-11T18:44:21.120Z,47.41
2022-10-11T18:57:32.114Z,47.53
2022-10-11T19:00:22.465Z,47.49
2022-10-11T19:03:07.142Z,47.47
2022-10-11T19:05:40.294Z,47.54
2022-10-11T19:08:06.842Z,47.86
2022-10-11T19:24:32.144Z,47.72
2022-10-11T19:27:05.297Z,47.66
2022-10-11T19:29:39.821Z,47.64
2022-10-11T19:32:13.193Z,47.58
2022-10-11T19:34:46.107Z,47.71
2022-10-11T19:37:19.289Z,47.70
2022-10-11T19:39:54.102Z,47.93
2022-10-11T19:49:45.094Z,47.93
2022-10-11T19:52:25.115Z,47.95
2022-10-11T19:55:00.178Z,48.02
2022-10-11T19:57:33.425Z,47.94
2022-10-11T20:00:08.721Z,47.91
2022-10-11T20:02:42.114Z,47.93
2022-10-11T20:18:37.901Z,47.84
2022-10-11T20:21:07.670Z,47.99
2022-10-11T20:23:50.127Z,47.94
2022-10-11T20:26:24.634Z,47.98
2022-10-11T20:29:01.139Z,47.89
2022-10-11T20:42:54.115Z,48.02
2022-10-11T20:45:27.150Z,48.01
2022-10-11T20:47:53.701Z,48.14
2022-10-11T20:50:34.102Z,48.00
2022-10-11T20:53:07.163Z,48.17
2022-10-11T20:55:33.758Z,48.29
2022-10-11T20:58:16.118Z,48.04
2022-10-11T21:11:25.106Z,48.13
2022-10-11T21:14:03.604Z,48.12
2022-10-11T21:16:44.102Z,48.17
2022-10-11T21:19:17.158Z,48.26
2022-10-11T21:21:53.636Z,48.30
2022-10-11T21:24:27.274Z,48.13
2022-10-11T21:37:17.075Z,48.24
2022-10-11T21:39:57.834Z,48.33
2022-10-11T21:42:31.239Z,48.50
2022-10-11T21:45:04.096Z,48.31
2022-10-11T21:47:39.126Z,48.34
2022-10-11T22:03:54.098Z,48.52
2022-10-11T22:06:27.128Z,48.55
2022-10-11T22:08:53.669Z,48.43
2022-10-11T22:11:34.139Z,48.36
2022-10-11T22:14:08.890Z,48.58
2022-10-11T22:16:42.114Z,48.61
2022-10-11T22:19:17.069Z,48.55
2022-10-11T22:32:04.076Z,48.98
2022-10-11T22:34:46.154Z,48.88
2022-10-11T22:37:19.140Z,49.06
2022-10-11T22:39:45.678Z,49.14
2022-10-11T22:42:27.696Z,49.13
2022-10-11T22:45:01.302Z,49.08
2022-10-11T22:57:50.082Z,49.36
2022-10-11T23:00:30.094Z,49.11
2022-10-11T23:03:03.541Z,49.01
2022-10-11T23:05:38.104Z,48.97
2022-10-11T23:08:11.213Z,49.18
2022-10-11T23:24:25.126Z,49.47
2022-10-11T23:26:58.142Z,49.40
2022-10-11T23:29:24.702Z,49.33
2022-10-11T23:32:05.099Z,49.39
2022-10-11T23:34:38.269Z,49.49
2022-10-11T23:37:12.165Z,49.52
2022-10-11T23:39:47.226Z,49.68
2022-10-11T23:52:34.061Z,49.65
2022-10-11T23:55:10.080Z,49.67
2022-10-11T23:57:43.097Z,49.48
